Time;durP1;ratioP1;P1;durP2;ratioP2;P2;SDS_P1;SDS_P2;PMS_P1;PMS_P2;Temp;Humidity;BMP_temperature;BMP_pressure;BME280_temperature;BME280_humidity;BME280_pressure;Samples;Min_cycle;Max_cycle;Signal;HPM_P1;HPM_P2
2023/08/20 00:01:24;;;;;;;1999.90;999.90;;;21.40;99.90;;;;;;5098477;28;20028;-72
2023/08/20 00:03:51;;;;;;;1999.90;999.90;;;21.30;99.90;;;;;;5095889;28;20055;-75
2023/08/20 00:06:17;;;;;;;1999.90;999.90;;;21.30;99.90;;;;;;5096099;28;20043;-76
2023/08/20 00:08:42;;;;;;;1999.90;999.90;;;21.20;99.90;;;;;;5095910;28;20032;-76
2023/08/20 00:11:09;;;;;;;1999.90;999.90;;;21.20;99.90;;;;;;5086029;28;20024;-76
2023/08/20 00:13:35;;;;;;;1999.90;999.90;;;21.20;99.90;;;;;;5084580;28;20016;-76
2023/08/20 00:16:01;;;;;;;1999.90;999.90;;;21.20;99.90;;;;;;5095916;28;20024;-76
2023/08/20 00:18:27;;;;;;;1999.90;999.90;;;21.20;99.90;;;;;;5088079;28;20155;-75
2023/08/20 00:20:54;;;;;;;1999.90;999.90;;;21.10;99.90;;;;;;5074734;28;20092;-76
2023/08/20 00:23:20;;;;;;;1999.90;999.90;;;21.10;99.90;;;;;;5073096;28;20764;-76
2023/08/20 00:25:47;;;;;;;1999.90;999.90;;;21.10;99.90;;;;;;5074762;28;20082;-76
2023/08/20 00:28:13;;;;;;;1999.90;999.90;;;21.00;99.90;;;;;;5074325;28;20110;-76
2023/08/20 00:30:38;;;;;;;1999.90;999.90;;;21.00;99.90;;;;;;5075526;28;20115;-75
2023/08/20 00:33:04;;;;;;;1999.90;999.90;;;21.00;99.90;;;;;;5075305;28;20107;-75
2023/08/20 00:35:30;;;;;;;1999.90;999.90;;;21.00;99.90;;;;;;5073514;28;20029;-76
2023/08/20 00:37:55;;;;;;;1999.90;999.90;;;20.90;99.90;;;;;;5075015;28;20034;-76
2023/08/20 00:40:21;;;;;;;1999.90;999.90;;;20.90;99.90;;;;;;5075315;28;20502;-76
2023/08/20 00:42:46;;;;;;;1999.90;999.90;;;20.90;99.90;;;;;;5075374;28;20025;-76
2023/08/20 00:45:12;;;;;;;1999.90;999.90;;;20.90;99.90;;;;;;5074888;28;20029;-75
2023/08/20 00:47:38;;;;;;;1999.90;999.90;;;20.80;99.90;;;;;;5073819;28;20063;-75
2023/08/20 00:50:07;;;;;;;1999.90;999.90;;;20.80;99.90;;;;;;5075480;28;20119;-76
2023/08/20 00:52:33;;;;;;;1999.90;999.90;;;20.70;99.90;;;;;;5085081;28;20024;-76
2023/08/20 00:54:59;;;;;;;1999.90;999.90;;;20.70;99.90;;;;;;5095139;28;20504;-76
2023/08/20 00:57:27;;;;;;;1999.90;999.90;;;20.60;99.90;;;;;;5095045;28;20093;-75
2023/08/20 00:59:54;;;;;;;1999.90;999.90;;;20.60;99.90;;;;;;5093726;28;20059;-75
2023/08/20 01:02:20;;;;;;;1999.90;999.90;;;20.50;99.90;;;;;;5094938;28;20396;-76
2023/08/20 01:04:47;;;;;;;1999.90;999.90;;;20.50;99.90;;;;;;5094886;28;20032;-75
2023/08/20 01:07:32;;;;;;;1999.90;999.90;;;20.40;99.90;;;;;;5094837;28;20027;-76
2023/08/20 01:09:57;;;;;;;1999.90;999.90;;;20.40;99.90;;;;;;5092948;28;20028;-75
2023/08/20 01:12:24;;;;;;;1999.90;999.90;;;20.40;99.90;;;;;;5081124;28;20479;-76
2023/08/20 01:14:50;;;;;;;1999.90;999.90;;;20.40;99.90;;;;;;5089238;28;20071;-78
2023/08/20 01:17:15;;;;;;;1999.90;999.90;;;20.30;99.90;;;;;;5094701;28;20105;-78
2023/08/20 01:19:41;;;;;;;1999.90;999.90;;;20.30;99.90;;;;;;5094731;28;20036;-78
2023/08/20 01:22:26;;;;;;;1999.90;999.90;;;20.30;99.90;;;;;;5090382;28;20020;-78
2023/08/20 01:25:10;;;;;;;1999.90;999.90;;;20.20;99.90;;;;;;5062614;28;20028;-77
2023/08/20 01:28:02;;;;;;;1999.90;999.90;;;20.20;99.90;;;;;;5074017;28;20062;-78
2023/08/20 01:30:30;;;;;;;1999.90;999.90;;;20.10;99.90;;;;;;5074427;28;20033;-78
2023/08/20 01:32:56;;;;;;;1999.90;999.90;;;20.10;99.90;;;;;;5074218;28;20146;-78
2023/08/20 01:35:25;;;;;;;1999.90;999.90;;;20.10;99.90;;;;;;5073993;28;20033;-77
2023/08/20 01:37:51;;;;;;;1999.90;999.90;;;20.00;99.90;;;;;;5072982;28;20555;-77
2023/08/20 01:40:16;;;;;;;1999.90;999.90;;;20.10;99.90;;;;;;5072837;28;20032;-77
2023/08/20 01:42:42;;;;;;;1999.90;999.90;;;20.00;99.90;;;;;;5074243;28;20021;-77
2023/08/20 01:45:08;;;;;;;1999.90;999.90;;;20.00;99.90;;;;;;5073763;28;20368;-77
2023/08/20 01:47:34;;;;;;;1999.90;999.90;;;20.00;99.90;;;;;;5072757;28;20074;-78
2023/08/20 01:50:00;;;;;;;1999.90;999.90;;;20.00;99.90;;;;;;5075477;28;20446;-77
2023/08/20 01:52:25;;;;;;;1999.90;999.90;;;20.00;99.90;;;;;;5082728;28;20028;-77
2023/08/20 01:54:52;;;;;;;1999.90;999.90;;;20.00;99.90;;;;;;5094437;28;20108;-78
2023/08/20 01:57:18;;;;;;;1999.90;999.90;;;19.90;99.90;;;;;;5093901;28;20063;-78
2023/08/20 01:59:43;;;;;;;1999.90;999.90;;;19.90;99.90;;;;;;5094044;28;20567;-78
2023/08/20 02:02:09;;;;;;;1999.90;999.90;;;19.90;99.90;;;;;;5093621;28;20415;-77
2023/08/20 02:04:34;;;;;;;1999.90;999.90;;;19.90;99.90;;;;;;5092498;28;20086;-77
2023/08/20 02:07:00;;;;;;;1999.90;999.90;;;19.90;99.90;;;;;;5093845;28;20103;-78
2023/08/20 02:09:26;;;;;;;1999.90;999.90;;;19.90;99.90;;;;;;5093620;28;20064;-78
2023/08/20 02:11:52;;;;;;;1999.90;999.90;;;19.90;99.90;;;;;;5080961;28;20458;-77
2023/08/20 02:14:18;;;;;;;1999.90;999.90;;;19.90;99.90;;;;;;5084948;28;20020;-78
2023/08/20 02:16:44;;;;;;;1999.90;999.90;;;19.90;99.90;;;;;;5093819;28;20020;-77
2023/08/20 02:19:09;;;;;;;1999.90;999.90;;;19.90;99.90;;;;;;5093489;28;20032;-78
2023/08/20 02:21:35;;;;;;;1999.90;999.90;;;19.90;99.90;;;;;;5093457;28;20016;-78
2023/08/20 02:24:01;;;;;;;1999.90;999.90;;;19.80;99.90;;;;;;5093386;28;20020;-78
2023/08/20 02:26:27;;;;;;;1999.90;999.90;;;19.80;99.90;;;;;;5093515;28;20367;-78
2023/08/20 02:28:52;;;;;;;1999.90;999.90;;;19.80;99.90;;;;;;5092262;28;20031;-77
2023/08/20 02:31:18;;;;;;;1999.90;999.90;;;19.80;99.90;;;;;;5093649;28;20121;-78
2023/08/20 02:33:44;;;;;;;1999.90;999.90;;;19.70;99.90;;;;;;5093349;28;20028;-78
2023/08/20 02:36:09;;;;;;;1999.90;999.90;;;19.60;99.90;;;;;;5093271;28;20024;-78
2023/08/20 02:38:35;;;;;;;1999.90;999.90;;;19.60;99.90;;;;;;5093109;28;20027;-78
2023/08/20 02:41:04;;;;;;;1999.90;999.90;;;19.60;99.90;;;;;;5093713;28;20023;-77
2023/08/20 02:43:30;;;;;;;1999.90;999.90;;;19.60;99.90;;;;;;5089655;28;20016;-76
2023/08/20 02:45:56;;;;;;;1999.90;999.90;;;19.60;99.90;;;;;;5072887;28;20058;-78
2023/08/20 02:48:26;;;;;;;1999.90;999.90;;;19.60;99.90;;;;;;5072895;28;20033;-77
2023/08/20 02:50:53;;;;;;;1999.90;999.90;;;19.60;99.90;;;;;;5075954;28;20020;-77
2023/08/20 02:53:19;;;;;;;1999.90;999.90;;;19.50;99.90;;;;;;5081274;28;20098;-77
2023/08/20 02:55:45;;;;;;;1999.90;999.90;;;19.50;99.90;;;;;;5073148;28;20479;-77
2023/08/20 02:58:10;;;;;;;1999.90;999.90;;;19.50;99.90;;;;;;5071443;28;20165;-78
2023/08/20 03:00:36;;;;;;;1999.90;999.90;;;19.50;99.90;;;;;;5072957;28;20091;-78
2023/08/20 03:03:05;;;;;;;1999.90;999.90;;;19.40;99.90;;;;;;5072056;28;20048;-78
2023/08/20 03:05:34;;;;;;;1999.90;999.90;;;19.30;99.90;;;;;;5071479;28;20028;-78
2023/08/20 03:08:01;;;;;;;1999.90;999.90;;;19.30;99.90;;;;;;5072586;28;20029;-78
2023/08/20 03:10:31;;;;;;;1999.90;999.90;;;19.30;99.90;;;;;;5072833;28;20479;-77
2023/08/20 03:12:58;;;;;;;1999.90;999.90;;;19.20;99.90;;;;;;5079196;28;20021;-77
2023/08/20 03:15:23;;;;;;;1999.90;999.90;;;19.20;99.90;;;;;;5089016;28;20032;-78
2023/08/20 03:17:49;;;;;;;1999.90;999.90;;;19.20;99.90;;;;;;5091608;28;20039;-78
2023/08/20 03:20:14;;;;;;;1999.90;999.90;;;19.20;99.90;;;;;;5091375;28;20077;-78
2023/08/20 03:22:40;;;;;;;1999.90;999.90;;;19.20;99.90;;;;;;5090469;28;20008;-77
2023/08/20 03:25:06;;;;;;;1999.90;999.90;;;19.20;99.90;;;;;;5092808;28;20415;-78
2023/08/20 03:27:32;;;;;;;1999.90;999.90;;;19.20;99.90;;;;;;5092868;28;20099;-78
2023/08/20 03:29:58;;;;;;;1999.90;999.90;;;19.20;99.90;;;;;;5092695;28;20150;-78
2023/08/20 03:32:24;;;;;;;1999.90;999.90;;;19.20;99.90;;;;;;5073020;28;20017;-78
2023/08/20 03:34:49;;;;;;;1999.90;999.90;;;19.10;99.90;;;;;;5072545;28;20509;-78
2023/08/20 03:37:15;;;;;;;1999.90;999.90;;;19.10;99.90;;;;;;5071187;28;20050;-77
2023/08/20 03:39:41;;;;;;;1999.90;999.90;;;19.10;99.90;;;;;;5072420;28;20033;-78
2023/08/20 03:42:07;;;;;;;1999.90;999.90;;;19.00;99.90;;;;;;5071391;28;20046;-78
2023/08/20 03:44:32;;;;;;;1999.90;999.90;;;19.00;99.90;;;;;;5072238;28;20103;-78
2023/08/20 03:46:58;;;;;;;1999.90;999.90;;;19.00;99.90;;;;;;5072747;28;20523;-77
2023/08/20 03:49:24;;;;;;;1999.90;999.90;;;19.00;99.90;;;;;;5072614;28;20036;-78
2023/08/20 03:51:49;;;;;;;1999.90;999.90;;;19.00;99.90;;;;;;5078466;28;20445;-78
2023/08/20 03:54:15;;;;;;;1999.90;999.90;;;19.00;99.90;;;;;;5090513;28;20050;-78
2023/08/20 03:56:40;;;;;;;1999.90;999.90;;;19.00;99.90;;;;;;5092722;28;20049;-78
2023/08/20 03:59:06;;;;;;;1999.90;999.90;;;19.00;99.90;;;;;;5092314;28;20530;-77
2023/08/20 04:01:32;;;;;;;1999.90;999.90;;;19.00;99.90;;;;;;5094475;28;20020;-77
2023/08/20 04:03:58;;;;;;;1999.90;999.90;;;18.90;99.90;;;;;;5095550;28;20055;-78
2023/08/20 04:06:24;;;;;;;1999.90;999.90;;;18.80;99.90;;;;;;5095901;28;20020;-78
2023/08/20 04:08:50;;;;;;;1999.90;999.90;;;18.80;99.90;;;;;;5096040;28;20036;-78
2023/08/20 04:11:15;;;;;;;1999.90;999.90;;;18.80;99.90;;;;;;5084332;28;20510;-77
2023/08/20 04:13:43;;;;;;;1999.90;999.90;;;18.80;99.90;;;;;;5084439;28;20161;-78
2023/08/20 04:16:09;;;;;;;1999.90;999.90;;;18.80;99.90;;;;;;5095875;28;20027;-78
2023/08/20 04:18:35;;;;;;;1999.90;999.90;;;18.80;99.90;;;;;;5096066;28;20107;-78
2023/08/20 04:21:00;;;;;;;1999.90;999.90;;;18.70;99.90;;;;;;5095929;28;20050;-78
2023/08/20 04:23:26;;;;;;;1999.90;999.90;;;18.70;99.90;;;;;;5095706;28;20410;-78
2023/08/20 04:25:52;;;;;;;1999.90;999.90;;;18.70;99.90;;;;;;5095757;28;20024;-77
2023/08/20 04:28:18;;;;;;;1999.90;999.90;;;18.70;99.90;;;;;;5095644;28;20034;-77
2023/08/20 04:30:43;;;;;;;1999.90;999.90;;;18.70;99.90;;;;;;5095877;28;20028;-78
2023/08/20 04:33:09;;;;;;;1999.90;999.90;;;18.70;99.90;;;;;;5095825;28;20140;-78
2023/08/20 04:35:35;;;;;;;1999.90;999.90;;;18.70;99.90;;;;;;5090399;28;20047;-78
2023/08/20 04:38:01;;;;;;;1999.90;999.90;;;18.60;99.90;;;;;;5083469;28;20082;-78
2023/08/20 04:40:26;;;;;;;1999.90;999.90;;;18.60;99.90;;;;;;5086445;28;20028;-77
2023/08/20 04:42:52;;;;;;;1999.90;999.90;;;18.60;99.90;;;;;;5075648;28;20028;-78
2023/08/20 04:45:19;;;;;;;1999.90;999.90;;;18.60;99.90;;;;;;5075157;28;20032;-78
2023/08/20 04:47:45;;;;;;;1999.90;999.90;;;18.50;99.90;;;;;;5073866;28;20056;-78
2023/08/20 04:50:11;;;;;;;1999.90;999.90;;;18.50;99.90;;;;;;5075652;28;20414;-78
2023/08/20 04:52:36;;;;;;;1999.90;999.90;;;18.50;99.90;;;;;;5087149;28;20093;-78
2023/08/20 04:55:02;;;;;;;1999.90;999.90;;;18.50;99.90;;;;;;5075063;28;20357;-78
2023/08/20 04:57:28;;;;;;;1999.90;999.90;;;18.50;99.90;;;;;;5078446;28;20051;-78
2023/08/20 04:59:54;;;;;;;1999.90;999.90;;;18.50;99.90;;;;;;5086121;28;20157;-78
2023/08/20 05:02:19;;;;;;;1999.90;999.90;;;18.50;99.90;;;;;;5095371;28;20056;-78
2023/08/20 05:04:45;;;;;;;1999.90;999.90;;;18.50;99.90;;;;;;5095087;28;20024;-77
2023/08/20 05:07:11;;;;;;;1999.90;999.90;;;18.50;99.90;;;;;;5094887;28;20089;-78
2023/08/20 05:09:36;;;;;;;1999.90;999.90;;;18.50;99.90;;;;;;5094105;28;20020;-78
2023/08/20 05:12:02;;;;;;;1999.90;999.90;;;18.40;99.90;;;;;;5085228;28;20028;-78
2023/08/20 05:14:29;;;;;;;1999.90;999.90;;;18.40;99.90;;;;;;5085793;28;20024;-78
2023/08/20 05:16:55;;;;;;;1999.90;999.90;;;18.40;99.90;;;;;;5094901;28;20020;-77
2023/08/20 05:19:20;;;;;;;1999.90;999.90;;;18.40;99.90;;;;;;5094733;28;20100;-77
2023/08/20 05:21:46;;;;;;;1999.90;999.90;;;18.40;99.90;;;;;;5093934;28;20055;-78
2023/08/20 05:24:11;;;;;;;1999.90;999.90;;;18.40;99.90;;;;;;5094694;28;20042;-78
2023/08/20 05:26:37;;;;;;;1999.90;999.90;;;18.50;99.90;;;;;;5094864;28;20024;-78
2023/08/20 05:29:03;;;;;;;1999.90;999.90;;;18.40;99.90;;;;;;5094854;28;20386;-77
2023/08/20 05:31:28;;;;;;;1999.90;999.90;;;18.50;99.90;;;;;;5093189;28;20398;-76
2023/08/20 05:33:54;;;;;;;1999.90;999.90;;;18.50;99.90;;;;;;5094456;28;20031;-77
2023/08/20 05:36:19;;;;;;;1999.90;999.90;;;18.40;99.90;;;;;;5094593;28;20042;-77
2023/08/20 05:38:45;;;;;;;1999.90;999.90;;;18.40;99.90;;;;;;5094304;28;20111;-76
2023/08/20 05:41:11;;;;;;;1999.90;999.90;;;18.40;99.90;;;;;;5094579;28;20028;-77
2023/08/20 05:43:36;;;;;;;1999.90;999.90;;;18.40;99.90;;;;;;5089516;28;20056;-77
2023/08/20 05:46:02;;;;;;;1999.90;999.90;;;18.50;99.90;;;;;;5073917;28;20032;-78
2023/08/20 05:48:28;;;;;;;1999.90;999.90;;;18.60;99.90;;;;;;5073926;28;20070;-78
2023/08/20 05:50:54;;;;;;;1999.90;999.90;;;18.70;99.90;;;;;;5080368;28;20059;-77
2023/08/20 05:53:21;;;;;;;1999.90;999.90;;;18.80;99.90;;;;;;5085310;28;20051;-78
2023/08/20 05:55:47;;;;;;;1999.90;999.90;;;18.90;99.90;;;;;;5092670;28;20031;-77
2023/08/20 05:58:13;;;;;;;1999.90;999.90;;;19.00;99.90;;;;;;5094094;28;20036;-77
2023/08/20 06:00:38;;;;;;;1999.90;999.90;;;19.20;99.90;;;;;;5093924;28;20486;-78
2023/08/20 06:03:04;;;;;;;1999.90;999.90;;;19.30;99.90;;;;;;5092366;28;20778;-77
2023/08/20 06:05:30;;;;;;;1999.90;999.90;;;19.30;99.90;;;;;;5093898;28;20024;-78
2023/08/20 06:07:56;;;;;;;1999.90;999.90;;;19.40;99.90;;;;;;5081025;28;20062;-78
2023/08/20 06:10:22;;;;;;;1999.90;999.90;;;19.40;99.90;;;;;;5086813;28;20384;-78
2023/08/20 06:12:48;;;;;;;1999.90;999.90;;;19.50;99.90;;;;;;5078916;28;20052;-77
2023/08/20 06:15:14;;;;;;;1999.90;999.90;;;19.60;99.90;;;;;;5089509;28;20548;-77
2023/08/20 06:17:40;;;;;;;1999.90;999.90;;;19.70;99.90;;;;;;5092520;28;20074;-77
2023/08/20 06:20:08;;;;;;;1999.90;999.90;;;19.80;99.90;;;;;;5093795;28;20020;-78
2023/08/20 06:22:34;;;;;;;1999.90;999.90;;;19.80;99.90;;;;;;5091335;28;20031;-78
2023/08/20 06:25:00;;;;;;;1999.90;999.90;;;19.90;99.90;;;;;;5093045;28;20031;-78
2023/08/20 06:27:26;;;;;;;1999.90;999.90;;;19.90;99.90;;;;;;5093496;28;20024;-78
2023/08/20 06:29:51;;;;;;;1999.90;999.90;;;20.10;99.90;;;;;;5085455;28;20082;-78
2023/08/20 06:32:17;;;;;;;1999.90;999.90;;;20.10;99.90;;;;;;5087282;28;20028;-78
2023/08/20 06:34:42;;;;;;;1999.90;999.90;;;20.20;99.90;;;;;;5092186;28;20020;-78
2023/08/20 06:37:08;;;;;;;1999.90;999.90;;;20.30;99.90;;;;;;5093337;28;20024;-77
2023/08/20 06:39:34;;;;;;;1999.90;999.90;;;20.30;99.90;;;;;;5093423;28;20095;-78
2023/08/20 06:42:00;;;;;;;1999.90;999.90;;;20.40;99.90;;;;;;5093353;28;20375;-78
2023/08/20 06:44:25;;;;;;;1999.90;999.90;;;20.50;99.90;;;;;;5081725;28;20154;-78
2023/08/20 06:46:51;;;;;;;1999.90;999.90;;;20.50;99.90;;;;;;5073209;28;20492;-78
2023/08/20 06:49:17;;;;;;;1999.90;999.90;;;20.60;99.90;;;;;;5071865;28;20442;-78
2023/08/20 06:51:42;;;;;;;1999.90;999.90;;;20.70;99.90;;;;;;5088548;28;20043;-78
2023/08/20 06:54:08;;;;;;;1999.90;999.90;;;20.90;99.90;;;;;;5093022;28;20056;-78
2023/08/20 06:56:33;;;;;;;1999.90;999.90;;;21.10;99.90;;;;;;5091866;28;20028;-78
2023/08/20 06:59:00;;;;;;;1999.90;999.90;;;21.30;99.90;;;;;;5091744;28;20024;-78
2023/08/20 07:01:26;;;;;;;1999.90;999.90;;;21.60;99.90;;;;;;5093170;28;20049;-77
2023/08/20 07:03:51;;;;;;;1999.90;999.90;;;21.70;99.90;;;;;;5091630;28;20131;-79
2023/08/20 07:06:18;;;;;;;1999.90;999.90;;;21.90;99.90;;;;;;5093121;28;20387;-79
2023/08/20 07:08:44;;;;;;;1999.90;999.90;;;22.10;99.90;;;;;;5092857;28;20024;-79
2023/08/20 07:11:09;;;;;;;1999.90;999.90;;;22.20;99.90;;;;;;5083157;28;20371;-79
2023/08/20 07:13:35;;;;;;;1999.90;999.90;;;22.30;99.90;;;;;;5082641;28;20063;-79
2023/08/20 07:16:02;;;;;;;1999.90;999.90;;;22.30;99.90;;;;;;5072801;28;20047;-77
2023/08/20 07:18:28;;;;;;;1999.90;999.90;;;22.30;99.90;;;;;;5071415;28;20035;-78
2023/08/20 07:20:55;;;;;;;1999.90;999.90;;;22.40;99.90;;;;;;5072583;28;20048;-77
2023/08/20 07:23:22;;;;;;;1999.90;999.90;;;22.50;99.90;;;;;;5089126;28;20020;-78
2023/08/20 07:25:48;;;;;;;1999.90;999.90;;;22.80;99.90;;;;;;5093035;28;20103;-78
2023/08/20 07:28:14;;;;;;;1999.90;999.90;;;23.10;99.90;;;;;;5091421;28;20039;-77
2023/08/20 07:30:40;;;;;;;1999.90;999.90;;;23.60;99.90;;;;;;5091500;28;20028;-77
2023/08/20 07:33:06;;;;;;;1999.90;999.90;;;24.20;99.90;;;;;;5092783;28;20035;-79
2023/08/20 07:35:32;;;;;;;1999.90;999.90;;;24.10;99.90;;;;;;5083416;28;20032;-79
2023/08/20 07:37:57;;;;;;;1999.90;999.90;;;24.00;99.90;;;;;;5076581;28;20028;-79
2023/08/20 07:40:23;;;;;;;1999.90;999.90;;;23.80;99.90;;;;;;5076508;28;20141;-77
2023/08/20 07:42:50;;;;;;;1999.90;999.90;;;23.60;99.90;;;;;;5075229;28;20024;-77
2023/08/20 07:45:15;;;;;;;1999.90;999.90;;;23.30;99.90;;;;;;5076405;28;20035;-78
2023/08/20 07:47:41;;;;;;;1999.90;999.90;;;23.20;99.90;;;;;;5076292;28;20458;-78
2023/08/20 07:50:07;;;;;;;1999.90;999.90;;;23.30;99.90;;;;;;5078287;28;20020;-78
2023/08/20 07:52:33;;;;;;;1999.90;999.90;;;23.50;99.90;;;;;;5087209;28;20025;-77
2023/08/20 07:54:58;;;;;;;1999.90;999.90;;;23.60;99.90;;;;;;5074847;28;20033;-77
2023/08/20 07:57:24;;;;;;;1999.90;999.90;;;24.20;99.90;;;;;;5076181;28;20090;-79
2023/08/20 07:59:50;;;;;;;1999.90;999.90;;;24.80;99.90;;;;;;5076055;28;20103;-79
2023/08/20 08:02:16;;;;;;;1999.90;999.90;;;24.90;99.90;;;;;;5075778;28;20407;-79
2023/08/20 08:04:42;;;;;;;1999.90;999.90;;;24.80;99.90;;;;;;5081432;28;20032;-79
2023/08/20 08:07:08;;;;;;;1999.90;999.90;;;27.10;99.90;;;;;;5086985;28;20020;-79
2023/08/20 08:09:34;;;;;;;1999.90;999.90;;;29.10;99.90;;;;;;5096316;28;20024;-77
2023/08/20 08:12:00;;;;;;;1999.90;999.90;;;31.00;99.90;;;;;;5081048;28;20391;-77
2023/08/20 08:14:26;;;;;;;1999.90;999.90;;;32.30;99.90;;;;;;5087133;28;20107;-77
2023/08/20 08:16:52;;;;;;;1999.90;999.90;;;32.50;99.90;;;;;;5094866;28;20056;-77
2023/08/20 08:19:18;;;;;;;1999.90;999.90;;;31.30;99.90;;;;;;5095942;28;20031;-76
2023/08/20 08:21:44;;;;;;;1999.90;999.90;;;30.90;99.90;;;;;;5095758;28;20023;-76
2023/08/20 08:24:11;;;;;;;1999.90;999.90;;;31.70;99.90;;;;;;5095652;28;20111;-77
2023/08/20 08:26:36;;;;;;;1999.90;999.90;;;32.40;99.90;;;;;;5096048;28;20025;-77
2023/08/20 08:29:03;;;;;;;1999.90;999.90;;;33.40;99.90;;;;;;5095815;28;20108;-78
2023/08/20 08:31:29;;;;;;;1999.90;999.90;;;33.10;99.90;;;;;;5095980;28;20021;-77
2023/08/20 08:33:55;;;;;;;1999.90;999.90;;;33.90;99.40;;;;;;5095686;28;20036;-78
2023/08/20 08:36:21;;;;;;;1999.90;999.90;;;34.60;98.80;;;;;;5081529;28;20043;-77
2023/08/20 08:38:46;;;;;;;1999.90;999.90;;;35.10;98.30;;;;;;5092401;28;20038;-78
2023/08/20 08:41:13;;;;;;;1999.90;999.90;;;34.90;97.30;;;;;;5094352;28;20070;-78
2023/08/20 08:43:39;;;;;;;1999.90;999.90;;;33.60;98.80;;;;;;5090656;28;20092;-78
2023/08/20 08:46:07;;;;;;;1999.90;999.90;;;32.10;99.50;;;;;;5075366;28;20040;-77
2023/08/20 08:48:35;;;;;;;1999.90;999.90;;;30.80;99.90;;;;;;5074310;28;20025;-78
2023/08/20 08:51:01;;;;;;;1999.90;999.90;;;30.20;99.90;;;;;;5079586;28;20032;-77
2023/08/20 08:53:27;;;;;;;1999.90;999.90;;;30.20;99.90;;;;;;5085646;28;20047;-77
2023/08/20 08:55:53;;;;;;;1999.90;999.90;;;31.10;99.90;;;;;;5095194;28;20491;-77
2023/08/20 08:58:18;;;;;;;1999.90;999.90;;;33.00;99.90;;;;;;5095535;28;20024;-77
2023/08/20 09:00:44;;;;;;;1999.90;999.90;;;33.50;99.10;;;;;;5095368;28;20028;-77
2023/08/20 09:03:09;;;;;;;1999.90;999.90;;;33.20;99.90;;;;;;5095204;28;20044;-78
2023/08/20 09:05:49;;;;;;;1999.90;999.90;;;34.80;99.10;;;;;;5093839;28;20133;-77
2023/08/20 09:08:27;;;;;;;1999.90;999.90;;;36.30;97.40;;;;;;5095025;28;20108;-78
2023/08/20 09:10:56;;;;;;;1999.90;999.90;;;36.60;96.50;;;;;;5085982;28;20052;-77
2023/08/20 09:13:32;;;;;;;1999.90;999.90;;;37.70;95.70;;;;;;5078583;28;20056;-78
2023/08/20 09:15:57;;;;;;;1999.90;999.90;;;38.30;95.30;;;;;;5055165;28;20025;-78
2023/08/20 09:18:23;;;;;;;1999.90;999.90;;;38.20;94.40;;;;;;5064689;28;20403;-78
2023/08/20 09:20:49;;;;;;;1999.90;999.90;;;37.70;94.40;;;;;;5074092;28;20056;-78
2023/08/20 09:23:15;;;;;;;1999.90;999.90;;;38.10;94.40;;;;;;5074634;28;20028;-78
2023/08/20 09:25:42;;;;;;;1999.90;999.90;;;37.70;94.00;;;;;;5074328;28;20021;-77
2023/08/20 09:28:08;;;;;;;1999.90;999.90;;;37.30;94.20;;;;;;5074465;28;20099;-77
2023/08/20 09:30:34;;;;;;;1999.90;999.90;;;37.60;94.30;;;;;;5074582;28;20158;-77
2023/08/20 09:33:18;;;;;;;1999.90;999.90;;;37.60;94.00;;;;;;5074579;28;20099;-78
2023/08/20 09:35:51;;;;;;;1999.90;999.90;;;37.40;93.60;;;;;;5074185;28;20028;-78
2023/08/20 09:38:21;;;;;;;1999.90;999.90;;;37.30;93.60;;;;;;5073781;28;20564;-77
2023/08/20 09:40:52;;;;;;;1999.90;999.90;;;37.30;93.90;;;;;;5074196;28;20495;-78
2023/08/20 09:43:19;;;;;;;1999.90;999.90;;;37.40;93.50;;;;;;5074190;28;20098;-78
2023/08/20 09:45:47;;;;;;;1999.90;999.90;;;37.20;94.00;;;;;;5073953;28;20498;-78
2023/08/20 09:48:19;;;;;;;1999.90;999.90;;;37.60;94.00;;;;;;5074058;28;20025;-77
2023/08/20 09:50:53;;;;;;;1999.90;999.90;;;38.50;93.20;;;;;;5076350;28;20115;-77
2023/08/20 09:53:26;;;;;;;1999.90;999.90;;;39.20;92.90;;;;;;5081607;28;20101;-77
2023/08/20 09:55:55;;;;;;;1999.90;999.90;;;38.00;92.70;;;;;;5072618;28;20169;-78
2023/08/20 09:58:25;;;;;;;1999.90;999.90;;;37.90;92.90;;;;;;5073285;28;20027;-78
2023/08/20 10:00:51;;;;;;;1999.90;999.90;;;37.60;92.30;;;;;;5073912;28;20038;-78
2023/08/20 10:03:19;;;;;;;1999.90;999.90;;;37.40;92.80;;;;;;5073482;28;20051;-78
2023/08/20 10:05:48;;;;;;;1999.90;999.90;;;37.70;92.70;;;;;;5073782;28;20028;-78
2023/08/20 10:08:14;;;;;;;1999.90;999.90;;;37.60;92.50;;;;;;5072053;28;20056;-78
2023/08/20 10:10:40;;;;;;;1999.90;999.90;;;37.40;92.50;;;;;;5072147;28;20395;-78
2023/08/20 10:13:06;;;;;;;1999.90;999.90;;;37.50;92.30;;;;;;5079842;28;20063;-78
2023/08/20 10:15:36;;;;;;;1999.90;999.90;;;37.50;92.80;;;;;;5091422;28;20089;-77
2023/08/20 10:18:02;;;;;;;1999.90;999.90;;;37.50;92.60;;;;;;5093619;28;20062;-78
2023/08/20 10:20:30;;;;;;;1999.90;999.90;;;37.50;92.70;;;;;;5093734;28;20023;-79
2023/08/20 10:23:00;;;;;;;1999.90;999.90;;;37.50;92.40;;;;;;5093484;28;20020;-78
2023/08/20 10:25:26;;;;;;;1999.90;999.90;;;37.30;92.70;;;;;;5093818;28;20400;-78
2023/08/20 10:27:53;;;;;;;1999.90;999.90;;;37.40;92.80;;;;;;5093741;28;20262;-78
2023/08/20 10:30:25;;;;;;;1999.90;999.90;;;37.30;92.80;;;;;;5093574;28;20479;-78
2023/08/20 10:33:02;;;;;;;1999.90;999.90;;;37.10;92.60;;;;;;5092257;28;20036;-78
2023/08/20 10:35:38;;;;;;;1999.90;999.90;;;36.60;93.00;;;;;;5093640;28;20020;-77
2023/08/20 10:38:11;;;;;;;1999.90;999.90;;;36.70;93.20;;;;;;5093368;28;20414;-78
2023/08/20 10:40:58;;;;;;;1999.90;999.90;;;37.00;93.60;;;;;;5093510;28;20072;-77
2023/08/20 10:43:26;;;;;;;1999.90;999.90;;;35.80;94.20;;;;;;5090523;28;20016;-77
2023/08/20 10:46:21;;;;;;;1999.90;999.90;;;35.10;95.00;;;;;;5073303;28;20021;-78
2023/08/20 10:48:51;;;;;;;1999.90;999.90;;;34.40;95.50;;;;;;5071782;28;20027;-78
2023/08/20 10:51:20;;;;;;;1999.90;999.90;;;34.50;95.60;;;;;;5078619;28;20089;-78
2023/08/20 10:54:10;;;;;;;1999.90;999.90;;;34.30;96.00;;;;;;5077555;28;20622;-78
2023/08/20 10:56:46;;;;;;;1999.90;999.90;;;34.20;96.30;;;;;;5071803;28;20035;-77
2023/08/20 10:59:27;;;;;;;1999.90;999.90;;;34.30;96.20;;;;;;5073123;28;20028;-78
2023/08/20 11:01:57;;;;;;;1999.90;999.90;;;34.30;97.00;;;;;;5072557;28;20028;-78
2023/08/20 11:04:26;;;;;;;1999.90;999.90;;;34.40;96.70;;;;;;5072898;28;20403;-78
2023/08/20 11:06:59;;;;;;;1999.90;999.90;;;34.60;96.80;;;;;;5072317;28;20106;-78
2023/08/20 11:09:26;;;;;;;1999.90;999.90;;;34.50;96.40;;;;;;5072929;28;20568;-77
2023/08/20 11:11:53;;;;;;;1999.90;999.90;;;34.40;96.50;;;;;;5080723;28;20041;-78
2023/08/20 11:14:20;;;;;;;1999.90;999.90;;;34.10;96.40;;;;;;5090753;28;20675;-78
2023/08/20 11:16:46;;;;;;;1999.90;999.90;;;34.10;97.00;;;;;;5099642;28;20426;-78
2023/08/20 11:19:13;;;;;;;1999.90;999.90;;;34.60;97.60;;;;;;5099715;28;20476;-78
2023/08/20 11:21:40;;;;;;;1999.90;999.90;;;34.80;96.40;;;;;;5099064;28;20030;-77
2023/08/20 11:24:07;;;;;;;1999.90;999.90;;;35.20;96.10;;;;;;5099403;28;20366;-77
2023/08/20 11:26:34;;;;;;;1999.90;999.90;;;35.10;96.00;;;;;;5099802;28;20020;-77
2023/08/20 11:29:00;;;;;;;1999.90;999.90;;;35.30;95.40;;;;;;5099467;28;20026;-77
2023/08/20 11:31:26;;;;;;;1999.90;999.90;;;35.40;95.40;;;;;;5098305;28;20039;-77
2023/08/20 11:33:51;;;;;;;1999.90;999.90;;;35.80;95.40;;;;;;5099504;28;20051;-78
2023/08/20 11:36:19;;;;;;;1999.90;999.90;;;36.00;95.60;;;;;;5099433;28;20032;-78
2023/08/20 11:38:52;;;;;;;1999.90;999.90;;;35.60;95.20;;;;;;5099348;28;20016;-77
2023/08/20 11:41:22;;;;;;;1999.90;999.90;;;35.30;95.70;;;;;;5099624;28;20020;-77
2023/08/20 11:43:49;;;;;;;1999.90;999.90;;;35.10;95.50;;;;;;5092988;28;20082;-77
2023/08/20 11:46:18;;;;;;;1999.90;999.90;;;34.80;96.30;;;;;;5077957;28;20028;-77
2023/08/20 11:49:06;;;;;;;1999.90;999.90;;;34.20;96.70;;;;;;5079252;28;20490;-77
2023/08/20 11:51:42;;;;;;;1999.90;999.90;;;33.50;97.20;;;;;;5084090;28;20033;-76
2023/08/20 11:54:15;;;;;;;1999.90;999.90;;;33.40;97.90;;;;;;5096143;28;20031;-76
2023/08/20 11:56:45;;;;;;;1999.90;999.90;;;33.50;98.70;;;;;;5099454;28;20039;-77
2023/08/20 11:59:11;;;;;;;1999.90;999.90;;;33.40;98.80;;;;;;5099184;28;20028;-77